logo
Search for airport 
image banner adimage banner adimage banner ad
image banner ad

ESSN - Norrtalje

Located in , Sweden

ICAO - ESSN, IATA -

Data provided by Airmate  

General information

Coordinates: N59°43'58" E18°41'47"
Elevation is 40 feet MSL.
 
Rated:
View ratings:
[VIEW]
View others Airports in Stockholms län

Operational data

Special qualification required
Current time UTC:
Current local time:
Weather at : ESSA - Stockholm/Arlanda ( 45 km )
METAR: ESSA 200620Z 32010KT 7000 -SN FEW014 SCT032 M02/M04 Q1009 NOSIG
TAF: TAF ESSA 200530Z 2006/2106 32010KT 9999 -SN OVC025
View NOTAMs / SUP AIP / TFR affecting this airport [VIEW]
Communications frequencies: [VIEW]

Runways:

RWY identifierQFULength (ft)Width (ft)SurfaceLDA (ft)
07213359ASPH
25213359ASPH

Airport contact information

Address: Sweden

Other aviation service providers

Flight schools

Proflight Nordic Ab

Proflight Nordic Ab
olc@proflight.se+4617618466

Aviation club (not for profit)

Gimo Flygklubb

Gimo Flygklubb
torkul@ebrevet.se+46701729041
+46701729041

Roslagens Flygklubb

Roslagens Flygklubb
per.winberg@afaforsakring.se+4617616308
+46708939552
Rated:
View ratings:
[VIEW]

Aerial work

Nordic Photoflight

Nordic Photoflight

Satellite view of ESSN